sensor_id;sensor_type;location;lat;lon;timestamp;P1;durP1;ratioP1;P2;durP2;ratioP2
27796;SDS011;15177;50.844;4.412;2023-03-31T00:02:09;14.50;;;2.80;;
27796;SDS011;15177;50.844;4.412;2023-03-31T00:04:39;15.55;;;3.03;;
27796;SDS011;15177;50.844;4.412;2023-03-31T00:07:10;21.00;;;2.95;;
27796;SDS011;15177;50.844;4.412;2023-03-31T00:09:40;16.70;;;2.70;;
27796;SDS011;15177;50.844;4.412;2023-03-31T00:12:10;22.33;;;3.08;;
27796;SDS011;15177;50.844;4.412;2023-03-31T00:14:37;14.55;;;3.42;;
27796;SDS011;15177;50.844;4.412;2023-03-31T00:17:03;22.70;;;4.97;;
27796;SDS011;15177;50.844;4.412;2023-03-31T00:19:30;17.17;;;3.45;;
27796;SDS011;15177;50.844;4.412;2023-03-31T00:21:57;20.05;;;3.67;;
27796;SDS011;15177;50.844;4.412;2023-03-31T00:24:29;25.20;;;3.78;;
27796;SDS011;15177;50.844;4.412;2023-03-31T00:26:59;15.40;;;3.30;;
27796;SDS011;15177;50.844;4.412;2023-03-31T00:29:26;18.00;;;3.53;;
27796;SDS011;15177;50.844;4.412;2023-03-31T00:31:53;15.68;;;3.50;;
27796;SDS011;15177;50.844;4.412;2023-03-31T00:34:20;13.98;;;3.40;;
27796;SDS011;15177;50.844;4.412;2023-03-31T00:36:46;24.87;;;5.33;;
27796;SDS011;15177;50.844;4.412;2023-03-31T00:39:13;19.90;;;4.07;;
27796;SDS011;15177;50.844;4.412;2023-03-31T00:41:40;15.97;;;2.97;;
27796;SDS011;15177;50.844;4.412;2023-03-31T00:44:12;19.67;;;3.97;;
27796;SDS011;15177;50.844;4.412;2023-03-31T00:49:31;22.90;;;4.13;;
27796;SDS011;15177;50.844;4.412;2023-03-31T00:52:06;26.03;;;4.37;;
27796;SDS011;15177;50.844;4.412;2023-03-31T00:54:32;18.27;;;4.57;;
27796;SDS011;15177;50.844;4.412;2023-03-31T00:56:58;19.53;;;4.43;;
27796;SDS011;15177;50.844;4.412;2023-03-31T00:59:27;23.85;;;4.45;;
27796;SDS011;15177;50.844;4.412;2023-03-31T01:01:58;24.30;;;4.60;;
27796;SDS011;15177;50.844;4.412;2023-03-31T01:04:27;26.23;;;4.43;;
27796;SDS011;15177;50.844;4.412;2023-03-31T01:07:20;23.60;;;4.23;;
27796;SDS011;15177;50.844;4.412;2023-03-31T01:10:02;21.53;;;3.83;;
27796;SDS011;15177;50.844;4.412;2023-03-31T01:12:31;20.13;;;4.03;;
27796;SDS011;15177;50.844;4.412;2023-03-31T01:14:58;22.97;;;4.00;;
27796;SDS011;15177;50.844;4.412;2023-03-31T01:17:26;23.40;;;4.00;;
27796;SDS011;15177;50.844;4.412;2023-03-31T01:20:13;19.97;;;3.13;;
27796;SDS011;15177;50.844;4.412;2023-03-31T01:36:13;26.23;;;3.40;;
27796;SDS011;15177;50.844;4.412;2023-03-31T01:46:54;12.63;;;2.37;;
27796;SDS011;15177;50.844;4.412;2023-03-31T01:49:46;15.00;;;2.20;;
27796;SDS011;15177;50.844;4.412;2023-03-31T01:54:53;12.97;;;2.60;;
27796;SDS011;15177;50.844;4.412;2023-03-31T01:57:40;13.33;;;2.40;;
27796;SDS011;15177;50.844;4.412;2023-03-31T02:00:11;14.40;;;2.63;;
27796;SDS011;15177;50.844;4.412;2023-03-31T02:05:27;7.27;;;2.07;;
27796;SDS011;15177;50.844;4.412;2023-03-31T02:08:05;10.53;;;2.17;;
27796;SDS011;15177;50.844;4.412;2023-03-31T02:10:37;16.97;;;2.17;;
27796;SDS011;15177;50.844;4.412;2023-03-31T02:13:06;12.70;;;2.23;;
27796;SDS011;15177;50.844;4.412;2023-03-31T02:15:36;12.00;;;2.57;;
27796;SDS011;15177;50.844;4.412;2023-03-31T02:18:07;8.40;;;1.87;;
27796;SDS011;15177;50.844;4.412;2023-03-31T02:20:40;9.97;;;2.10;;
27796;SDS011;15177;50.844;4.412;2023-03-31T02:23:10;8.57;;;1.70;;
27796;SDS011;15177;50.844;4.412;2023-03-31T02:25:44;10.70;;;2.20;;
27796;SDS011;15177;50.844;4.412;2023-03-31T02:28:23;9.03;;;1.97;;
27796;SDS011;15177;50.844;4.412;2023-03-31T02:33:44;10.40;;;2.63;;
27796;SDS011;15177;50.844;4.412;2023-03-31T02:36:10;8.80;;;1.97;;
27796;SDS011;15177;50.844;4.412;2023-03-31T02:38:38;6.93;;;1.60;;
27796;SDS011;15177;50.844;4.412;2023-03-31T02:41:11;15.80;;;3.40;;
27796;SDS011;15177;50.844;4.412;2023-03-31T02:43:37;7.77;;;1.57;;
27796;SDS011;15177;50.844;4.412;2023-03-31T02:46:03;13.13;;;2.00;;
27796;SDS011;15177;50.844;4.412;2023-03-31T02:48:33;10.57;;;2.37;;
27796;SDS011;15177;50.844;4.412;2023-03-31T02:53:52;13.43;;;2.60;;
27796;SDS011;15177;50.844;4.412;2023-03-31T02:56:40;9.80;;;1.97;;
27796;SDS011;15177;50.844;4.412;2023-03-31T03:18:37;10.83;;;2.07;;
27796;SDS011;15177;50.844;4.412;2023-03-31T03:21:03;20.27;;;2.57;;
27796;SDS011;15177;50.844;4.412;2023-03-31T03:23:31;9.43;;;2.07;;
27796;SDS011;15177;50.844;4.412;2023-03-31T03:25:57;16.30;;;3.07;;
27796;SDS011;15177;50.844;4.412;2023-03-31T03:28:22;15.13;;;2.70;;
27796;SDS011;15177;50.844;4.412;2023-03-31T03:30:48;15.40;;;2.40;;
27796;SDS011;15177;50.844;4.412;2023-03-31T03:33:15;8.90;;;2.33;;
27796;SDS011;15177;50.844;4.412;2023-03-31T03:35:42;9.30;;;2.33;;
27796;SDS011;15177;50.844;4.412;2023-03-31T03:38:08;14.10;;;3.00;;
27796;SDS011;15177;50.844;4.412;2023-03-31T03:40:35;14.47;;;2.50;;
27796;SDS011;15177;50.844;4.412;2023-03-31T03:43:01;24.23;;;4.27;;
27796;SDS011;15177;50.844;4.412;2023-03-31T03:45:26;14.87;;;2.50;;
27796;SDS011;15177;50.844;4.412;2023-03-31T03:47:52;11.43;;;2.10;;
27796;SDS011;15177;50.844;4.412;2023-03-31T03:50:17;6.03;;;1.47;;
27796;SDS011;15177;50.844;4.412;2023-03-31T03:52:43;3.93;;;1.23;;
27796;SDS011;15177;50.844;4.412;2023-03-31T03:55:09;5.03;;;1.13;;
27796;SDS011;15177;50.844;4.412;2023-03-31T03:57:36;3.70;;;1.03;;
27796;SDS011;15177;50.844;4.412;2023-03-31T04:00:02;6.07;;;0.70;;
27796;SDS011;15177;50.844;4.412;2023-03-31T04:02:34;1.83;;;0.40;;
27796;SDS011;15177;50.844;4.412;2023-03-31T04:04:59;3.43;;;1.10;;
27796;SDS011;15177;50.844;4.412;2023-03-31T04:07:26;2.33;;;1.10;;
27796;SDS011;15177;50.844;4.412;2023-03-31T04:09:51;3.00;;;0.50;;
27796;SDS011;15177;50.844;4.412;2023-03-31T04:12:17;6.07;;;0.60;;
27796;SDS011;15177;50.844;4.412;2023-03-31T04:14:43;3.57;;;0.80;;
27796;SDS011;15177;50.844;4.412;2023-03-31T04:17:08;3.80;;;0.77;;
27796;SDS011;15177;50.844;4.412;2023-03-31T04:19:39;6.63;;;1.07;;
27796;SDS011;15177;50.844;4.412;2023-03-31T04:22:06;3.53;;;0.87;;
27796;SDS011;15177;50.844;4.412;2023-03-31T04:24:37;3.30;;;1.27;;
27796;SDS011;15177;50.844;4.412;2023-03-31T04:27:02;4.37;;;1.40;;
27796;SDS011;15177;50.844;4.412;2023-03-31T04:29:31;8.57;;;1.60;;
27796;SDS011;15177;50.844;4.412;2023-03-31T04:31:58;5.53;;;1.50;;
27796;SDS011;15177;50.844;4.412;2023-03-31T04:34:24;10.23;;;2.00;;
27796;SDS011;15177;50.844;4.412;2023-03-31T04:36:59;7.37;;;1.70;;
27796;SDS011;15177;50.844;4.412;2023-03-31T04:39:27;12.20;;;2.53;;
27796;SDS011;15177;50.844;4.412;2023-03-31T04:41:55;13.53;;;3.00;;
27796;SDS011;15177;50.844;4.412;2023-03-31T04:44:22;7.60;;;2.10;;
27796;SDS011;15177;50.844;4.412;2023-03-31T04:46:50;17.27;;;2.70;;
27796;SDS011;15177;50.844;4.412;2023-03-31T04:49:15;11.80;;;2.67;;
27796;SDS011;15177;50.844;4.412;2023-03-31T04:51:41;19.20;;;3.10;;
27796;SDS011;15177;50.844;4.412;2023-03-31T04:54:08;17.13;;;2.83;;
27796;SDS011;15177;50.844;4.412;2023-03-31T04:56:35;15.90;;;3.10;;
27796;SDS011;15177;50.844;4.412;2023-03-31T04:59:01;14.90;;;3.47;;
27796;SDS011;15177;50.844;4.412;2023-03-31T05:01:28;15.90;;;3.00;;
27796;SDS011;15177;50.844;4.412;2023-03-31T05:03:57;10.57;;;2.37;;
27796;SDS011;15177;50.844;4.412;2023-03-31T05:06:23;14.73;;;3.17;;
27796;SDS011;15177;50.844;4.412;2023-03-31T05:08:49;14.60;;;2.97;;
27796;SDS011;15177;50.844;4.412;2023-03-31T05:11:15;9.87;;;2.77;;
27796;SDS011;15177;50.844;4.412;2023-03-31T05:13:41;18.23;;;3.20;;
27796;SDS011;15177;50.844;4.412;2023-03-31T05:16:08;9.70;;;2.80;;
27796;SDS011;15177;50.844;4.412;2023-03-31T05:18:36;24.73;;;3.40;;
27796;SDS011;15177;50.844;4.412;2023-03-31T05:21:15;23.13;;;4.10;;
27796;SDS011;15177;50.844;4.412;2023-03-31T05:23:44;18.33;;;3.80;;
27796;SDS011;15177;50.844;4.412;2023-03-31T05:26:10;19.57;;;3.87;;
27796;SDS011;15177;50.844;4.412;2023-03-31T05:28:37;14.77;;;3.23;;
27796;SDS011;15177;50.844;4.412;2023-03-31T05:31:05;16.47;;;3.20;;
27796;SDS011;15177;50.844;4.412;2023-03-31T05:33:32;15.17;;;3.20;;
27796;SDS011;15177;50.844;4.412;2023-03-31T05:35:59;15.63;;;3.50;;
27796;SDS011;15177;50.844;4.412;2023-03-31T05:38:26;26.13;;;3.50;;
27796;SDS011;15177;50.844;4.412;2023-03-31T05:40:55;16.13;;;2.57;;
27796;SDS011;15177;50.844;4.412;2023-03-31T05:43:21;21.93;;;4.00;;
27796;SDS011;15177;50.844;4.412;2023-03-31T05:45:47;20.53;;;3.57;;
27796;SDS011;15177;50.844;4.412;2023-03-31T05:48:13;27.10;;;3.80;;
27796;SDS011;15177;50.844;4.412;2023-03-31T05:50:39;19.13;;;3.53;;
27796;SDS011;15177;50.844;4.412;2023-03-31T05:53:07;18.50;;;3.37;;
27796;SDS011;15177;50.844;4.412;2023-03-31T05:55:35;20.70;;;3.90;;
27796;SDS011;15177;50.844;4.412;2023-03-31T05:58:03;19.80;;;3.10;;
27796;SDS011;15177;50.844;4.412;2023-03-31T06:00:30;16.83;;;3.77;;
27796;SDS011;15177;50.844;4.412;2023-03-31T06:02:57;16.93;;;3.47;;
27796;SDS011;15177;50.844;4.412;2023-03-31T06:05:23;14.40;;;3.73;;
27796;SDS011;15177;50.844;4.412;2023-03-31T06:07:52;25.83;;;3.60;;
27796;SDS011;15177;50.844;4.412;2023-03-31T06:10:18;19.10;;;3.70;;
27796;SDS011;15177;50.844;4.412;2023-03-31T06:12:44;14.13;;;3.43;;
27796;SDS011;15177;50.844;4.412;2023-03-31T06:15:09;15.80;;;3.10;;
27796;SDS011;15177;50.844;4.412;2023-03-31T06:17:35;16.60;;;3.57;;
27796;SDS011;15177;50.844;4.412;2023-03-31T06:20:01;17.83;;;4.07;;
27796;SDS011;15177;50.844;4.412;2023-03-31T06:22:28;18.17;;;3.30;;
27796;SDS011;15177;50.844;4.412;2023-03-31T06:24:54;15.93;;;4.20;;
27796;SDS011;15177;50.844;4.412;2023-03-31T06:27:20;18.53;;;3.37;;
27796;SDS011;15177;50.844;4.412;2023-03-31T06:29:45;16.20;;;4.57;;
27796;SDS011;15177;50.844;4.412;2023-03-31T06:32:11;17.57;;;3.80;;
27796;SDS011;15177;50.844;4.412;2023-03-31T06:34:37;21.67;;;4.50;;
27796;SDS011;15177;50.844;4.412;2023-03-31T06:37:03;25.30;;;4.70;;
27796;SDS011;15177;50.844;4.412;2023-03-31T06:39:29;12.07;;;3.63;;
27796;SDS011;15177;50.844;4.412;2023-03-31T06:41:55;20.13;;;4.47;;
27796;SDS011;15177;50.844;4.412;2023-03-31T06:44:21;14.17;;;3.70;;
27796;SDS011;15177;50.844;4.412;2023-03-31T06:46:48;18.80;;;4.17;;
27796;SDS011;15177;50.844;4.412;2023-03-31T06:49:14;16.13;;;3.30;;
27796;SDS011;15177;50.844;4.412;2023-03-31T06:51:40;25.73;;;4.50;;
27796;SDS011;15177;50.844;4.412;2023-03-31T06:54:05;17.95;;;4.88;;
27796;SDS011;15177;50.844;4.412;2023-03-31T06:56:31;16.13;;;4.27;;
27796;SDS011;15177;50.844;4.412;2023-03-31T06:58:57;13.53;;;3.17;;
27796;SDS011;15177;50.844;4.412;2023-03-31T07:01:23;25.48;;;4.05;;
27796;SDS011;15177;50.844;4.412;2023-03-31T07:03:50;15.10;;;3.57;;
27796;SDS011;15177;50.844;4.412;2023-03-31T07:06:15;16.77;;;4.63;;
27796;SDS011;15177;50.844;4.412;2023-03-31T07:08:41;20.07;;;3.60;;
27796;SDS011;15177;50.844;4.412;2023-03-31T07:11:07;18.20;;;3.63;;
27796;SDS011;15177;50.844;4.412;2023-03-31T07:13:33;17.60;;;4.90;;
27796;SDS011;15177;50.844;4.412;2023-03-31T07:15:58;24.17;;;4.43;;
27796;SDS011;15177;50.844;4.412;2023-03-31T07:18:24;18.88;;;4.10;;
27796;SDS011;15177;50.844;4.412;2023-03-31T07:20:56;21.23;;;3.97;;
27796;SDS011;15177;50.844;4.412;2023-03-31T07:23:23;18.10;;;4.23;;
27796;SDS011;15177;50.844;4.412;2023-03-31T07:25:49;22.40;;;4.40;;
27796;SDS011;15177;50.844;4.412;2023-03-31T07:28:14;21.37;;;3.90;;
27796;SDS011;15177;50.844;4.412;2023-03-31T07:30:40;16.70;;;3.55;;
27796;SDS011;15177;50.844;4.412;2023-03-31T07:33:06;15.77;;;3.63;;
27796;SDS011;15177;50.844;4.412;2023-03-31T07:35:32;22.03;;;4.23;;
27796;SDS011;15177;50.844;4.412;2023-03-31T07:38:01;21.27;;;4.40;;
27796;SDS011;15177;50.844;4.412;2023-03-31T07:40:30;24.83;;;5.13;;
27796;SDS011;15177;50.844;4.412;2023-03-31T07:42:56;16.90;;;4.07;;
27796;SDS011;15177;50.844;4.412;2023-03-31T07:45:22;29.30;;;5.10;;
27796;SDS011;15177;50.844;4.412;2023-03-31T07:47:50;18.77;;;4.47;;
27796;SDS011;15177;50.844;4.412;2023-03-31T07:50:16;20.17;;;3.73;;
27796;SDS011;15177;50.844;4.412;2023-03-31T07:52:43;26.57;;;5.27;;
27796;SDS011;15177;50.844;4.412;2023-03-31T07:55:10;23.63;;;5.27;;
27796;SDS011;15177;50.844;4.412;2023-03-31T07:57:37;30.53;;;5.50;;
27796;SDS011;15177;50.844;4.412;2023-03-31T08:00:04;24.00;;;5.97;;
27796;SDS011;15177;50.844;4.412;2023-03-31T08:02:36;22.87;;;4.97;;
27796;SDS011;15177;50.844;4.412;2023-03-31T08:05:04;31.97;;;4.70;;
27796;SDS011;15177;50.844;4.412;2023-03-31T08:07:33;28.87;;;7.27;;
27796;SDS011;15177;50.844;4.412;2023-03-31T08:09:59;21.10;;;4.53;;
27796;SDS011;15177;50.844;4.412;2023-03-31T08:12:25;23.55;;;5.07;;
27796;SDS011;15177;50.844;4.412;2023-03-31T08:14:50;19.97;;;4.67;;
27796;SDS011;15177;50.844;4.412;2023-03-31T08:17:16;20.97;;;4.67;;
27796;SDS011;15177;50.844;4.412;2023-03-31T08:19:42;24.27;;;5.37;;
27796;SDS011;15177;50.844;4.412;2023-03-31T08:22:07;26.65;;;4.88;;
27796;SDS011;15177;50.844;4.412;2023-03-31T08:24:33;22.60;;;4.60;;
27796;SDS011;15177;50.844;4.412;2023-03-31T08:26:59;23.98;;;4.88;;
27796;SDS011;15177;50.844;4.412;2023-03-31T08:29:24;22.08;;;4.22;;
27796;SDS011;15177;50.844;4.412;2023-03-31T08:31:50;22.23;;;4.77;;
27796;SDS011;15177;50.844;4.412;2023-03-31T08:34:15;16.02;;;5.28;;
27796;SDS011;15177;50.844;4.412;2023-03-31T08:36:41;24.70;;;3.75;;
27796;SDS011;15177;50.844;4.412;2023-03-31T08:39:07;17.77;;;3.97;;
27796;SDS011;15177;50.844;4.412;2023-03-31T08:41:40;22.52;;;4.13;;
27796;SDS011;15177;50.844;4.412;2023-03-31T08:44:14;22.58;;;4.45;;
27796;SDS011;15177;50.844;4.412;2023-03-31T08:46:46;22.30;;;4.33;;
27796;SDS011;15177;50.844;4.412;2023-03-31T08:49:15;21.08;;;4.28;;
27796;SDS011;15177;50.844;4.412;2023-03-31T08:51:51;25.07;;;4.73;;
27796;SDS011;15177;50.844;4.412;2023-03-31T08:56:56;24.77;;;4.38;;
27796;SDS011;15177;50.844;4.412;2023-03-31T08:59:26;25.92;;;4.38;;
27796;SDS011;15177;50.844;4.412;2023-03-31T09:01:58;17.98;;;3.72;;
27796;SDS011;15177;50.844;4.412;2023-03-31T09:04:42;21.15;;;4.57;;
27796;SDS011;15177;50.844;4.412;2023-03-31T09:15:54;20.43;;;4.07;;
27796;SDS011;15177;50.844;4.412;2023-03-31T09:18:27;17.73;;;3.57;;
27796;SDS011;15177;50.844;4.412;2023-03-31T09:23:39;17.15;;;3.28;;
27796;SDS011;15177;50.844;4.412;2023-03-31T09:26:18;17.92;;;3.95;;
27796;SDS011;15177;50.844;4.412;2023-03-31T09:28:48;26.45;;;4.05;;
27796;SDS011;15177;50.844;4.412;2023-03-31T09:31:18;15.43;;;4.07;;
27796;SDS011;15177;50.844;4.412;2023-03-31T09:33:45;23.35;;;3.97;;
27796;SDS011;15177;50.844;4.412;2023-03-31T09:36:16;23.25;;;4.28;;
27796;SDS011;15177;50.844;4.412;2023-03-31T09:38:44;26.65;;;4.95;;
27796;SDS011;15177;50.844;4.412;2023-03-31T09:41:11;27.73;;;5.25;;
27796;SDS011;15177;50.844;4.412;2023-03-31T09:43:40;27.38;;;5.13;;
27796;SDS011;15177;50.844;4.412;2023-03-31T09:48:54;35.85;;;5.60;;
27796;SDS011;15177;50.844;4.412;2023-03-31T09:51:31;20.27;;;4.95;;
27796;SDS011;15177;50.844;4.412;2023-03-31T09:56:49;29.38;;;5.10;;
27796;SDS011;15177;50.844;4.412;2023-03-31T09:59:18;22.83;;;5.10;;
27796;SDS011;15177;50.844;4.412;2023-03-31T10:01:46;31.40;;;5.57;;
27796;SDS011;15177;50.844;4.412;2023-03-31T10:04:18;25.57;;;4.83;;
27796;SDS011;15177;50.844;4.412;2023-03-31T10:06:47;24.80;;;5.80;;
27796;SDS011;15177;50.844;4.412;2023-03-31T10:09:23;30.63;;;4.82;;
27796;SDS011;15177;50.844;4.412;2023-03-31T10:11:52;25.55;;;5.47;;
27796;SDS011;15177;50.844;4.412;2023-03-31T10:17:16;26.00;;;5.20;;
27796;SDS011;15177;50.844;4.412;2023-03-31T10:20:29;24.30;;;5.53;;
27796;SDS011;15177;50.844;4.412;2023-03-31T10:22:43;25.75;;;5.68;;
27796;SDS011;15177;50.844;4.412;2023-03-31T10:27:46;20.67;;;4.50;;
27796;SDS011;15177;50.844;4.412;2023-03-31T10:30:21;25.55;;;4.63;;
27796;SDS011;15177;50.844;4.412;2023-03-31T10:32:52;21.67;;;5.57;;
27796;SDS011;15177;50.844;4.412;2023-03-31T10:35:31;28.08;;;4.45;;
27796;SDS011;15177;50.844;4.412;2023-03-31T10:37:59;24.70;;;4.85;;
27796;SDS011;15177;50.844;4.412;2023-03-31T10:40:31;22.75;;;4.22;;
27796;SDS011;15177;50.844;4.412;2023-03-31T10:45:58;25.67;;;4.53;;
27796;SDS011;15177;50.844;4.412;2023-03-31T10:48:28;28.75;;;5.50;;
27796;SDS011;15177;50.844;4.412;2023-03-31T10:51:00;17.63;;;3.95;;
27796;SDS011;15177;50.844;4.412;2023-03-31T10:53:38;26.10;;;4.40;;
27796;SDS011;15177;50.844;4.412;2023-03-31T10:56:23;17.80;;;3.95;;
27796;SDS011;15177;50.844;4.412;2023-03-31T11:20:37;20.45;;;5.07;;
27796;SDS011;15177;50.844;4.412;2023-03-31T11:26:04;22.77;;;4.47;;
27796;SDS011;15177;50.844;4.412;2023-03-31T11:28:55;19.95;;;4.53;;
27796;SDS011;15177;50.844;4.412;2023-03-31T11:43:15;15.95;;;4.10;;
27796;SDS011;15177;50.844;4.412;2023-03-31T11:52:00;16.33;;;2.92;;
27796;SDS011;15177;50.844;4.412;2023-03-31T11:54:05;19.55;;;3.30;;
27796;SDS011;15177;50.844;4.412;2023-03-31T11:56:37;14.40;;;2.97;;
27796;SDS011;15177;50.844;4.412;2023-03-31T11:59:05;20.65;;;3.63;;
27796;SDS011;15177;50.844;4.412;2023-03-31T12:04:27;15.77;;;3.25;;
27796;SDS011;15177;50.844;4.412;2023-03-31T12:07:42;16.77;;;3.50;;
27796;SDS011;15177;50.844;4.412;2023-03-31T12:12:44;22.23;;;4.00;;
27796;SDS011;15177;50.844;4.412;2023-03-31T12:15:28;15.27;;;3.10;;
27796;SDS011;15177;50.844;4.412;2023-03-31T12:20:34;13.63;;;3.50;;
27796;SDS011;15177;50.844;4.412;2023-03-31T12:23:07;17.03;;;3.23;;
27796;SDS011;15177;50.844;4.412;2023-03-31T12:28:16;13.73;;;3.30;;
27796;SDS011;15177;50.844;4.412;2023-03-31T12:30:43;10.70;;;2.50;;
27796;SDS011;15177;50.844;4.412;2023-03-31T12:49:45;9.27;;;1.50;;
27796;SDS011;15177;50.844;4.412;2023-03-31T12:58:05;7.68;;;1.42;;
27796;SDS011;15177;50.844;4.412;2023-03-31T13:11:57;4.03;;;1.27;;
27796;SDS011;15177;50.844;4.412;2023-03-31T13:14:35;7.00;;;1.48;;
27796;SDS011;15177;50.844;4.412;2023-03-31T13:17:22;4.32;;;1.17;;
27796;SDS011;15177;50.844;4.412;2023-03-31T13:19:48;5.00;;;1.03;;
27796;SDS011;15177;50.844;4.412;2023-03-31T13:22:29;2.10;;;1.23;;
27796;SDS011;15177;50.844;4.412;2023-03-31T13:28:09;3.57;;;0.97;;
27796;SDS011;15177;50.844;4.412;2023-03-31T13:35:28;5.00;;;1.03;;
27796;SDS011;15177;50.844;4.412;2023-03-31T13:38:12;8.43;;;1.23;;
27796;SDS011;15177;50.844;4.412;2023-03-31T13:56:53;1.93;;;1.00;;
27796;SDS011;15177;50.844;4.412;2023-03-31T14:05:41;4.83;;;1.07;;
27796;SDS011;15177;50.844;4.412;2023-03-31T14:08:13;3.57;;;0.90;;
27796;SDS011;15177;50.844;4.412;2023-03-31T14:11:14;4.33;;;1.60;;
27796;SDS011;15177;50.844;4.412;2023-03-31T14:13:41;6.00;;;0.93;;
27796;SDS011;15177;50.844;4.412;2023-03-31T14:16:07;4.20;;;0.83;;
27796;SDS011;15177;50.844;4.412;2023-03-31T14:18:35;3.73;;;0.70;;
27796;SDS011;15177;50.844;4.412;2023-03-31T14:21:16;5.67;;;1.00;;
27796;SDS011;15177;50.844;4.412;2023-03-31T14:23:59;3.27;;;0.70;;
27796;SDS011;15177;50.844;4.412;2023-03-31T14:34:38;5.80;;;0.90;;
27796;SDS011;15177;50.844;4.412;2023-03-31T14:37:25;1.47;;;0.87;;
27796;SDS011;15177;50.844;4.412;2023-03-31T14:39:53;4.53;;;0.60;;
27796;SDS011;15177;50.844;4.412;2023-03-31T14:42:39;5.17;;;1.20;;
27796;SDS011;15177;50.844;4.412;2023-03-31T14:45:17;3.65;;;0.98;;
27796;SDS011;15177;50.844;4.412;2023-03-31T14:47:56;3.00;;;0.77;;
27796;SDS011;15177;50.844;4.412;2023-03-31T14:50:30;6.30;;;1.60;;
27796;SDS011;15177;50.844;4.412;2023-03-31T14:52:59;3.37;;;0.87;;
27796;SDS011;15177;50.844;4.412;2023-03-31T14:55:27;2.30;;;0.97;;
27796;SDS011;15177;50.844;4.412;2023-03-31T14:57:54;4.57;;;1.03;;
27796;SDS011;15177;50.844;4.412;2023-03-31T15:00:25;1.67;;;0.67;;
27796;SDS011;15177;50.844;4.412;2023-03-31T15:02:54;2.60;;;0.90;;
27796;SDS011;15177;50.844;4.412;2023-03-31T15:05:28;5.73;;;0.80;;
27796;SDS011;15177;50.844;4.412;2023-03-31T15:07:57;1.67;;;0.70;;
27796;SDS011;15177;50.844;4.412;2023-03-31T15:10:24;6.47;;;1.13;;
27796;SDS011;15177;50.844;4.412;2023-03-31T15:12:52;1.97;;;0.80;;
27796;SDS011;15177;50.844;4.412;2023-03-31T15:15:18;3.77;;;0.77;;
27796;SDS011;15177;50.844;4.412;2023-03-31T15:17:45;7.47;;;1.40;;
27796;SDS011;15177;50.844;4.412;2023-03-31T15:20:45;3.93;;;0.73;;
27796;SDS011;15177;50.844;4.412;2023-03-31T15:23:17;2.57;;;1.17;;
27796;SDS011;15177;50.844;4.412;2023-03-31T15:25:58;4.90;;;0.80;;
27796;SDS011;15177;50.844;4.412;2023-03-31T15:28:28;4.10;;;0.60;;
27796;SDS011;15177;50.844;4.412;2023-03-31T15:31:01;4.10;;;0.80;;
27796;SDS011;15177;50.844;4.412;2023-03-31T15:33:32;4.63;;;1.07;;
27796;SDS011;15177;50.844;4.412;2023-03-31T15:36:00;4.27;;;1.10;;
27796;SDS011;15177;50.844;4.412;2023-03-31T15:38:27;4.23;;;0.90;;
27796;SDS011;15177;50.844;4.412;2023-03-31T15:40:56;7.00;;;1.17;;
27796;SDS011;15177;50.844;4.412;2023-03-31T15:43:27;3.37;;;1.10;;
27796;SDS011;15177;50.844;4.412;2023-03-31T15:48:27;4.67;;;1.27;;
27796;SDS011;15177;50.844;4.412;2023-03-31T15:51:06;5.37;;;1.23;;
27796;SDS011;15177;50.844;4.412;2023-03-31T15:59:22;3.30;;;1.17;;
27796;SDS011;15177;50.844;4.412;2023-03-31T16:01:49;6.23;;;1.07;;
27796;SDS011;15177;50.844;4.412;2023-03-31T16:04:16;4.90;;;1.97;;
27796;SDS011;15177;50.844;4.412;2023-03-31T16:06:43;7.33;;;2.93;;
27796;SDS011;15177;50.844;4.412;2023-03-31T16:09:23;4.60;;;2.20;;
27796;SDS011;15177;50.844;4.412;2023-03-31T16:12:09;9.03;;;1.93;;
27796;SDS011;15177;50.844;4.412;2023-03-31T16:14:46;7.27;;;1.67;;
27796;SDS011;15177;50.844;4.412;2023-03-31T16:17:24;6.73;;;1.70;;
27796;SDS011;15177;50.844;4.412;2023-03-31T16:20:00;8.53;;;2.23;;
27796;SDS011;15177;50.844;4.412;2023-03-31T16:22:39;6.47;;;1.37;;
27796;SDS011;15177;50.844;4.412;2023-03-31T16:25:11;9.43;;;1.93;;
27796;SDS011;15177;50.844;4.412;2023-03-31T16:27:40;12.23;;;1.80;;
27796;SDS011;15177;50.844;4.412;2023-03-31T16:30:12;7.47;;;1.80;;
27796;SDS011;15177;50.844;4.412;2023-03-31T16:35:28;11.20;;;2.30;;
27796;SDS011;15177;50.844;4.412;2023-03-31T16:38:04;9.47;;;1.97;;
27796;SDS011;15177;50.844;4.412;2023-03-31T16:40:38;8.23;;;2.10;;
27796;SDS011;15177;50.844;4.412;2023-03-31T16:43:27;6.87;;;1.90;;
27796;SDS011;15177;50.844;4.412;2023-03-31T16:45:54;9.80;;;2.23;;
27796;SDS011;15177;50.844;4.412;2023-03-31T16:48:24;9.13;;;2.00;;
27796;SDS011;15177;50.844;4.412;2023-03-31T16:50:52;12.70;;;2.27;;
27796;SDS011;15177;50.844;4.412;2023-03-31T16:53:23;11.30;;;2.40;;
27796;SDS011;15177;50.844;4.412;2023-03-31T16:55:51;12.30;;;2.50;;
27796;SDS011;15177;50.844;4.412;2023-03-31T16:58:19;10.77;;;2.47;;
27796;SDS011;15177;50.844;4.412;2023-03-31T17:00:46;9.03;;;2.43;;
27796;SDS011;15177;50.844;4.412;2023-03-31T17:03:11;5.43;;;1.93;;
27796;SDS011;15177;50.844;4.412;2023-03-31T17:05:42;11.80;;;2.03;;
27796;SDS011;15177;50.844;4.412;2023-03-31T17:08:09;8.97;;;2.27;;
27796;SDS011;15177;50.844;4.412;2023-03-31T17:10:36;9.33;;;2.63;;
27796;SDS011;15177;50.844;4.412;2023-03-31T17:13:05;9.13;;;2.03;;
27796;SDS011;15177;50.844;4.412;2023-03-31T17:15:34;7.30;;;1.90;;
27796;SDS011;15177;50.844;4.412;2023-03-31T17:18:00;10.10;;;2.00;;
27796;SDS011;15177;50.844;4.412;2023-03-31T17:20:27;6.43;;;1.90;;
27796;SDS011;15177;50.844;4.412;2023-03-31T17:22:54;15.10;;;2.03;;
27796;SDS011;15177;50.844;4.412;2023-03-31T17:25:20;12.77;;;2.70;;
27796;SDS011;15177;50.844;4.412;2023-03-31T17:27:45;14.27;;;2.23;;
27796;SDS011;15177;50.844;4.412;2023-03-31T17:30:11;11.07;;;2.30;;
27796;SDS011;15177;50.844;4.412;2023-03-31T17:32:39;13.87;;;2.13;;
27796;SDS011;15177;50.844;4.412;2023-03-31T17:35:05;16.37;;;2.23;;
27796;SDS011;15177;50.844;4.412;2023-03-31T17:37:32;6.90;;;2.30;;
27796;SDS011;15177;50.844;4.412;2023-03-31T17:39:58;11.23;;;2.60;;
27796;SDS011;15177;50.844;4.412;2023-03-31T17:42:24;7.50;;;2.13;;
27796;SDS011;15177;50.844;4.412;2023-03-31T17:44:50;10.83;;;2.40;;
27796;SDS011;15177;50.844;4.412;2023-03-31T17:47:17;14.80;;;3.40;;
27796;SDS011;15177;50.844;4.412;2023-03-31T17:49:44;13.57;;;3.07;;
27796;SDS011;15177;50.844;4.412;2023-03-31T17:52:10;12.43;;;3.23;;
27796;SDS011;15177;50.844;4.412;2023-03-31T17:54:37;13.57;;;2.90;;
27796;SDS011;15177;50.844;4.412;2023-03-31T17:57:03;17.10;;;3.57;;
27796;SDS011;15177;50.844;4.412;2023-03-31T17:59:29;20.37;;;3.43;;
27796;SDS011;15177;50.844;4.412;2023-03-31T18:01:55;18.20;;;3.27;;
27796;SDS011;15177;50.844;4.412;2023-03-31T18:04:20;17.43;;;3.33;;
27796;SDS011;15177;50.844;4.412;2023-03-31T18:06:46;19.93;;;3.73;;
27796;SDS011;15177;50.844;4.412;2023-03-31T18:09:12;18.93;;;3.40;;
27796;SDS011;15177;50.844;4.412;2023-03-31T18:11:39;20.63;;;3.20;;
27796;SDS011;15177;50.844;4.412;2023-03-31T18:14:05;18.67;;;3.97;;
27796;SDS011;15177;50.844;4.412;2023-03-31T18:16:31;17.60;;;3.60;;
27796;SDS011;15177;50.844;4.412;2023-03-31T18:18:57;16.67;;;3.50;;
27796;SDS011;15177;50.844;4.412;2023-03-31T18:21:23;11.33;;;3.00;;
27796;SDS011;15177;50.844;4.412;2023-03-31T18:23:49;20.23;;;3.60;;
27796;SDS011;15177;50.844;4.412;2023-03-31T18:26:17;20.43;;;4.10;;
27796;SDS011;15177;50.844;4.412;2023-03-31T18:28:43;20.20;;;3.67;;
27796;SDS011;15177;50.844;4.412;2023-03-31T18:31:10;24.27;;;5.07;;
27796;SDS011;15177;50.844;4.412;2023-03-31T18:33:36;14.90;;;3.80;;